sensor_id;sensor_type;location;lat;lon;timestamp;P1;durP1;ratioP1;P2;durP2;ratioP2
16416;SDS011;8317;52.186;5.688;2023-08-21T00:01:12;2.92;;;1.60;;
16416;SDS011;8317;52.186;5.688;2023-08-21T00:03:38;5.05;;;1.45;;
16416;SDS011;8317;52.186;5.688;2023-08-21T00:06:05;1.50;;;1.40;;
16416;SDS011;8317;52.186;5.688;2023-08-21T00:08:32;1.65;;;1.55;;
16416;SDS011;8317;52.186;5.688;2023-08-21T00:10:59;3.63;;;1.55;;
16416;SDS011;8317;52.186;5.688;2023-08-21T00:13:27;1.45;;;1.33;;
16416;SDS011;8317;52.186;5.688;2023-08-21T00:15:54;3.45;;;1.52;;
16416;SDS011;8317;52.186;5.688;2023-08-21T00:18:21;3.47;;;1.17;;
16416;SDS011;8317;52.186;5.688;2023-08-21T00:20:48;1.95;;;1.30;;
16416;SDS011;8317;52.186;5.688;2023-08-21T00:23:15;1.40;;;1.30;;
16416;SDS011;8317;52.186;5.688;2023-08-21T00:25:45;3.28;;;1.40;;
16416;SDS011;8317;52.186;5.688;2023-08-21T00:28:12;1.40;;;1.13;;
16416;SDS011;8317;52.186;5.688;2023-08-21T00:30:41;3.95;;;1.67;;
16416;SDS011;8317;52.186;5.688;2023-08-21T00:33:08;5.50;;;1.50;;
16416;SDS011;8317;52.186;5.688;2023-08-21T00:35:35;5.28;;;1.60;;
16416;SDS011;8317;52.186;5.688;2023-08-21T00:38:02;4.85;;;1.20;;
16416;SDS011;8317;52.186;5.688;2023-08-21T00:40:32;1.77;;;1.30;;
16416;SDS011;8317;52.186;5.688;2023-08-21T00:43:02;3.20;;;1.20;;
16416;SDS011;8317;52.186;5.688;2023-08-21T00:45:29;3.53;;;1.30;;
16416;SDS011;8317;52.186;5.688;2023-08-21T00:47:58;3.35;;;1.80;;
16416;SDS011;8317;52.186;5.688;2023-08-21T00:50:25;2.53;;;1.60;;
16416;SDS011;8317;52.186;5.688;2023-08-21T00:52:52;2.83;;;1.10;;
16416;SDS011;8317;52.186;5.688;2023-08-21T00:55:19;2.00;;;1.50;;
16416;SDS011;8317;52.186;5.688;2023-08-21T00:57:46;2.38;;;1.27;;
16416;SDS011;8317;52.186;5.688;2023-08-21T01:00:13;1.85;;;1.70;;
16416;SDS011;8317;52.186;5.688;2023-08-21T01:02:40;4.47;;;2.17;;
16416;SDS011;8317;52.186;5.688;2023-08-21T01:05:11;1.48;;;1.20;;
16416;SDS011;8317;52.186;5.688;2023-08-21T01:07:44;4.13;;;1.20;;
16416;SDS011;8317;52.186;5.688;2023-08-21T01:10:18;1.35;;;1.25;;
16416;SDS011;8317;52.186;5.688;2023-08-21T01:12:59;4.97;;;1.23;;
16416;SDS011;8317;52.186;5.688;2023-08-21T01:15:32;1.85;;;1.20;;
16416;SDS011;8317;52.186;5.688;2023-08-21T01:17:59;2.35;;;1.10;;
16416;SDS011;8317;52.186;5.688;2023-08-21T01:20:28;3.28;;;1.52;;
16416;SDS011;8317;52.186;5.688;2023-08-21T01:22:56;1.60;;;1.50;;
16416;SDS011;8317;52.186;5.688;2023-08-21T01:25:24;2.28;;;1.40;;
16416;SDS011;8317;52.186;5.688;2023-08-21T01:27:51;1.80;;;1.40;;
16416;SDS011;8317;52.186;5.688;2023-08-21T01:30:18;3.63;;;2.40;;
16416;SDS011;8317;52.186;5.688;2023-08-21T01:32:47;4.53;;;1.92;;
16416;SDS011;8317;52.186;5.688;2023-08-21T01:35:18;3.65;;;1.20;;
16416;SDS011;8317;52.186;5.688;2023-08-21T01:37:47;2.13;;;1.40;;
16416;SDS011;8317;52.186;5.688;2023-08-21T01:40:19;2.00;;;1.60;;
16416;SDS011;8317;52.186;5.688;2023-08-21T01:42:48;1.25;;;1.15;;
16416;SDS011;8317;52.186;5.688;2023-08-21T01:45:15;1.30;;;1.20;;
16416;SDS011;8317;52.186;5.688;2023-08-21T01:47:42;1.80;;;1.42;;
16416;SDS011;8317;52.186;5.688;2023-08-21T01:50:09;3.72;;;1.20;;
16416;SDS011;8317;52.186;5.688;2023-08-21T01:52:36;1.58;;;1.27;;
16416;SDS011;8317;52.186;5.688;2023-08-21T01:55:04;2.95;;;1.60;;
16416;SDS011;8317;52.186;5.688;2023-08-21T01:57:33;3.17;;;1.55;;
16416;SDS011;8317;52.186;5.688;2023-08-21T02:00:01;3.38;;;1.55;;
16416;SDS011;8317;52.186;5.688;2023-08-21T02:02:29;1.55;;;1.27;;
16416;SDS011;8317;52.186;5.688;2023-08-21T02:04:56;1.55;;;1.17;;
16416;SDS011;8317;52.186;5.688;2023-08-21T02:07:23;3.08;;;1.23;;
16416;SDS011;8317;52.186;5.688;2023-08-21T02:09:50;3.22;;;1.33;;
16416;SDS011;8317;52.186;5.688;2023-08-21T02:12:17;1.98;;;1.40;;
16416;SDS011;8317;52.186;5.688;2023-08-21T02:14:44;3.58;;;1.30;;
16416;SDS011;8317;52.186;5.688;2023-08-21T02:17:12;3.75;;;1.42;;
16416;SDS011;8317;52.186;5.688;2023-08-21T02:19:39;1.23;;;1.17;;
16416;SDS011;8317;52.186;5.688;2023-08-21T02:22:06;2.75;;;1.40;;
16416;SDS011;8317;52.186;5.688;2023-08-21T02:24:32;1.40;;;1.30;;
16416;SDS011;8317;52.186;5.688;2023-08-21T02:26:59;2.95;;;1.33;;
16416;SDS011;8317;52.186;5.688;2023-08-21T02:29:28;8.48;;;1.10;;
16416;SDS011;8317;52.186;5.688;2023-08-21T02:31:55;4.07;;;1.20;;
16416;SDS011;8317;52.186;5.688;2023-08-21T02:34:23;2.08;;;1.27;;
16416;SDS011;8317;52.186;5.688;2023-08-21T02:36:50;1.80;;;1.35;;
16416;SDS011;8317;52.186;5.688;2023-08-21T02:39:17;4.20;;;1.15;;
16416;SDS011;8317;52.186;5.688;2023-08-21T02:41:43;2.05;;;1.30;;
16416;SDS011;8317;52.186;5.688;2023-08-21T02:44:10;2.58;;;1.55;;
16416;SDS011;8317;52.186;5.688;2023-08-21T02:46:37;1.63;;;1.13;;
16416;SDS011;8317;52.186;5.688;2023-08-21T02:49:05;2.15;;;1.10;;
16416;SDS011;8317;52.186;5.688;2023-08-21T02:51:33;2.53;;;1.45;;
16416;SDS011;8317;52.186;5.688;2023-08-21T02:54:00;2.47;;;1.27;;
16416;SDS011;8317;52.186;5.688;2023-08-21T02:56:26;2.45;;;1.17;;
16416;SDS011;8317;52.186;5.688;2023-08-21T02:58:54;2.05;;;1.00;;
16416;SDS011;8317;52.186;5.688;2023-08-21T03:01:20;1.98;;;1.35;;
16416;SDS011;8317;52.186;5.688;2023-08-21T03:03:47;2.22;;;1.20;;
16416;SDS011;8317;52.186;5.688;2023-08-21T03:06:14;3.95;;;1.52;;
16416;SDS011;8317;52.186;5.688;2023-08-21T03:08:42;4.47;;;1.45;;
16416;SDS011;8317;52.186;5.688;2023-08-21T03:11:09;5.95;;;1.80;;
16416;SDS011;8317;52.186;5.688;2023-08-21T03:13:37;2.60;;;1.55;;
16416;SDS011;8317;52.186;5.688;2023-08-21T03:16:04;2.53;;;1.30;;
16416;SDS011;8317;52.186;5.688;2023-08-21T03:18:31;3.05;;;1.33;;
16416;SDS011;8317;52.186;5.688;2023-08-21T03:20:58;2.13;;;1.00;;
16416;SDS011;8317;52.186;5.688;2023-08-21T03:23:25;1.27;;;1.17;;
16416;SDS011;8317;52.186;5.688;2023-08-21T03:25:54;2.80;;;1.00;;
16416;SDS011;8317;52.186;5.688;2023-08-21T03:28:20;6.43;;;1.40;;
16416;SDS011;8317;52.186;5.688;2023-08-21T03:30:47;3.97;;;1.20;;
16416;SDS011;8317;52.186;5.688;2023-08-21T03:33:14;3.75;;;1.42;;
16416;SDS011;8317;52.186;5.688;2023-08-21T03:35:41;3.55;;;1.60;;
16416;SDS011;8317;52.186;5.688;2023-08-21T03:38:08;1.52;;;1.42;;
16416;SDS011;8317;52.186;5.688;2023-08-21T03:40:35;1.42;;;1.30;;
16416;SDS011;8317;52.186;5.688;2023-08-21T03:43:03;1.92;;;1.40;;
16416;SDS011;8317;52.186;5.688;2023-08-21T03:45:30;1.67;;;1.13;;
16416;SDS011;8317;52.186;5.688;2023-08-21T03:47:57;3.17;;;1.30;;
16416;SDS011;8317;52.186;5.688;2023-08-21T03:50:24;5.50;;;1.52;;
16416;SDS011;8317;52.186;5.688;2023-08-21T03:52:50;2.10;;;1.48;;
16416;SDS011;8317;52.186;5.688;2023-08-21T03:55:17;2.38;;;1.40;;
16416;SDS011;8317;52.186;5.688;2023-08-21T03:57:44;1.98;;;1.35;;
16416;SDS011;8317;52.186;5.688;2023-08-21T04:00:13;3.33;;;1.52;;
16416;SDS011;8317;52.186;5.688;2023-08-21T04:02:41;2.85;;;1.25;;
16416;SDS011;8317;52.186;5.688;2023-08-21T04:05:08;2.97;;;1.67;;
16416;SDS011;8317;52.186;5.688;2023-08-21T04:07:36;1.45;;;1.35;;
16416;SDS011;8317;52.186;5.688;2023-08-21T04:10:39;2.65;;;1.60;;
16416;SDS011;8317;52.186;5.688;2023-08-21T04:13:07;3.53;;;1.45;;
16416;SDS011;8317;52.186;5.688;2023-08-21T04:15:35;2.28;;;1.17;;
16416;SDS011;8317;52.186;5.688;2023-08-21T04:18:02;2.75;;;1.27;;
16416;SDS011;8317;52.186;5.688;2023-08-21T04:20:30;1.83;;;1.50;;
16416;SDS011;8317;52.186;5.688;2023-08-21T04:22:57;1.50;;;1.40;;
16416;SDS011;8317;52.186;5.688;2023-08-21T04:25:24;2.30;;;1.45;;
16416;SDS011;8317;52.186;5.688;2023-08-21T04:27:51;3.00;;;1.27;;
16416;SDS011;8317;52.186;5.688;2023-08-21T04:30:18;3.58;;;1.70;;
16416;SDS011;8317;52.186;5.688;2023-08-21T04:32:47;3.80;;;1.67;;
16416;SDS011;8317;52.186;5.688;2023-08-21T04:35:14;2.17;;;1.13;;
16416;SDS011;8317;52.186;5.688;2023-08-21T04:37:43;1.48;;;1.08;;
16416;SDS011;8317;52.186;5.688;2023-08-21T04:40:12;2.53;;;1.33;;
16416;SDS011;8317;52.186;5.688;2023-08-21T04:42:39;3.83;;;1.17;;
16416;SDS011;8317;52.186;5.688;2023-08-21T04:45:07;2.97;;;1.50;;
16416;SDS011;8317;52.186;5.688;2023-08-21T04:47:34;1.40;;;1.30;;
16416;SDS011;8317;52.186;5.688;2023-08-21T04:50:02;1.77;;;1.27;;
16416;SDS011;8317;52.186;5.688;2023-08-21T04:52:30;3.22;;;1.20;;
16416;SDS011;8317;52.186;5.688;2023-08-21T04:54:57;3.72;;;1.42;;
16416;SDS011;8317;52.186;5.688;2023-08-21T04:57:24;3.45;;;1.38;;
16416;SDS011;8317;52.186;5.688;2023-08-21T04:59:51;1.98;;;1.35;;
16416;SDS011;8317;52.186;5.688;2023-08-21T05:02:17;2.60;;;1.33;;
16416;SDS011;8317;52.186;5.688;2023-08-21T05:04:44;2.78;;;1.40;;
16416;SDS011;8317;52.186;5.688;2023-08-21T05:07:13;3.38;;;1.42;;
16416;SDS011;8317;52.186;5.688;2023-08-21T05:09:40;2.67;;;1.73;;
16416;SDS011;8317;52.186;5.688;2023-08-21T05:12:07;3.38;;;1.20;;
16416;SDS011;8317;52.186;5.688;2023-08-21T05:14:34;2.28;;;1.50;;
16416;SDS011;8317;52.186;5.688;2023-08-21T05:17:02;2.75;;;1.45;;
16416;SDS011;8317;52.186;5.688;2023-08-21T05:19:29;3.38;;;1.52;;
16416;SDS011;8317;52.186;5.688;2023-08-21T05:21:56;6.18;;;1.40;;
16416;SDS011;8317;52.186;5.688;2023-08-21T05:24:24;7.28;;;1.55;;
16416;SDS011;8317;52.186;5.688;2023-08-21T05:27:01;1.63;;;1.50;;
16416;SDS011;8317;52.186;5.688;2023-08-21T05:29:29;1.98;;;1.42;;
16416;SDS011;8317;52.186;5.688;2023-08-21T05:31:56;1.75;;;1.50;;
16416;SDS011;8317;52.186;5.688;2023-08-21T05:34:23;2.58;;;1.75;;
16416;SDS011;8317;52.186;5.688;2023-08-21T05:36:50;4.10;;;2.38;;
16416;SDS011;8317;52.186;5.688;2023-08-21T05:39:19;1.65;;;1.55;;
16416;SDS011;8317;52.186;5.688;2023-08-21T05:41:47;2.00;;;1.40;;
16416;SDS011;8317;52.186;5.688;2023-08-21T05:44:14;2.15;;;1.67;;
16416;SDS011;8317;52.186;5.688;2023-08-21T05:46:41;3.78;;;1.50;;
16416;SDS011;8317;52.186;5.688;2023-08-21T05:49:08;3.35;;;2.25;;
16416;SDS011;8317;52.186;5.688;2023-08-21T05:51:35;2.35;;;1.20;;
16416;SDS011;8317;52.186;5.688;2023-08-21T05:54:02;2.97;;;1.95;;
16416;SDS011;8317;52.186;5.688;2023-08-21T05:56:29;3.13;;;1.55;;
16416;SDS011;8317;52.186;5.688;2023-08-21T05:58:57;3.17;;;1.60;;
16416;SDS011;8317;52.186;5.688;2023-08-21T06:01:24;3.55;;;1.48;;
16416;SDS011;8317;52.186;5.688;2023-08-21T06:03:51;1.95;;;1.58;;
16416;SDS011;8317;52.186;5.688;2023-08-21T06:06:18;5.78;;;1.60;;
16416;SDS011;8317;52.186;5.688;2023-08-21T06:08:44;3.13;;;2.00;;
16416;SDS011;8317;52.186;5.688;2023-08-21T06:11:11;2.60;;;1.40;;
16416;SDS011;8317;52.186;5.688;2023-08-21T06:13:39;2.70;;;1.85;;
16416;SDS011;8317;52.186;5.688;2023-08-21T06:16:08;3.67;;;1.67;;
16416;SDS011;8317;52.186;5.688;2023-08-21T06:18:34;5.25;;;1.77;;
16416;SDS011;8317;52.186;5.688;2023-08-21T06:21:01;1.70;;;1.60;;
16416;SDS011;8317;52.186;5.688;2023-08-21T06:23:28;2.97;;;1.58;;
16416;SDS011;8317;52.186;5.688;2023-08-21T06:25:55;3.05;;;1.70;;
16416;SDS011;8317;52.186;5.688;2023-08-21T06:28:22;4.57;;;1.75;;
16416;SDS011;8317;52.186;5.688;2023-08-21T06:30:55;3.67;;;1.67;;
16416;SDS011;8317;52.186;5.688;2023-08-21T06:33:24;3.28;;;1.63;;
16416;SDS011;8317;52.186;5.688;2023-08-21T06:35:51;2.00;;;1.23;;
16416;SDS011;8317;52.186;5.688;2023-08-21T06:38:18;4.40;;;2.10;;
16416;SDS011;8317;52.186;5.688;2023-08-21T06:40:45;2.85;;;1.63;;
16416;SDS011;8317;52.186;5.688;2023-08-21T06:43:11;3.22;;;1.40;;
16416;SDS011;8317;52.186;5.688;2023-08-21T06:45:38;2.88;;;1.60;;
16416;SDS011;8317;52.186;5.688;2023-08-21T06:48:05;1.58;;;1.35;;
16416;SDS011;8317;52.186;5.688;2023-08-21T06:50:34;3.72;;;2.47;;
16416;SDS011;8317;52.186;5.688;2023-08-21T06:53:03;2.95;;;1.80;;
16416;SDS011;8317;52.186;5.688;2023-08-21T06:55:30;3.13;;;1.88;;
16416;SDS011;8317;52.186;5.688;2023-08-21T06:57:57;5.97;;;2.10;;
16416;SDS011;8317;52.186;5.688;2023-08-21T07:00:24;5.85;;;2.50;;
16416;SDS011;8317;52.186;5.688;2023-08-21T07:02:51;3.53;;;1.95;;
16416;SDS011;8317;52.186;5.688;2023-08-21T07:05:17;3.08;;;1.83;;
16416;SDS011;8317;52.186;5.688;2023-08-21T07:07:46;4.10;;;1.77;;
16416;SDS011;8317;52.186;5.688;2023-08-21T07:10:13;6.07;;;1.60;;
16416;SDS011;8317;52.186;5.688;2023-08-21T07:12:39;6.13;;;1.50;;
16416;SDS011;8317;52.186;5.688;2023-08-21T07:15:07;1.80;;;1.20;;
16416;SDS011;8317;52.186;5.688;2023-08-21T07:17:34;1.88;;;1.50;;
16416;SDS011;8317;52.186;5.688;2023-08-21T07:20:01;5.03;;;1.70;;
16416;SDS011;8317;52.186;5.688;2023-08-21T07:22:29;2.75;;;1.38;;
16416;SDS011;8317;52.186;5.688;2023-08-21T07:24:57;3.47;;;1.67;;
16416;SDS011;8317;52.186;5.688;2023-08-21T07:27:25;3.90;;;1.40;;
16416;SDS011;8317;52.186;5.688;2023-08-21T07:29:55;2.45;;;1.20;;
16416;SDS011;8317;52.186;5.688;2023-08-21T07:32:22;4.15;;;1.50;;
16416;SDS011;8317;52.186;5.688;2023-08-21T07:34:51;4.32;;;1.52;;
16416;SDS011;8317;52.186;5.688;2023-08-21T07:37:18;3.50;;;1.40;;
16416;SDS011;8317;52.186;5.688;2023-08-21T07:39:45;2.20;;;1.10;;
16416;SDS011;8317;52.186;5.688;2023-08-21T07:42:13;6.85;;;1.15;;
16416;SDS011;8317;52.186;5.688;2023-08-21T07:44:40;4.13;;;1.33;;
16416;SDS011;8317;52.186;5.688;2023-08-21T07:47:07;7.47;;;1.80;;
16416;SDS011;8317;52.186;5.688;2023-08-21T07:49:34;5.93;;;1.33;;
16416;SDS011;8317;52.186;5.688;2023-08-21T07:52:02;3.47;;;1.23;;
16416;SDS011;8317;52.186;5.688;2023-08-21T07:54:29;5.68;;;1.70;;
16416;SDS011;8317;52.186;5.688;2023-08-21T07:56:56;4.53;;;1.30;;
16416;SDS011;8317;52.186;5.688;2023-08-21T07:59:24;3.42;;;1.98;;
16416;SDS011;8317;52.186;5.688;2023-08-21T08:01:51;6.38;;;1.77;;
16416;SDS011;8317;52.186;5.688;2023-08-21T08:04:18;6.75;;;1.95;;
16416;SDS011;8317;52.186;5.688;2023-08-21T08:06:46;5.68;;;1.75;;
16416;SDS011;8317;52.186;5.688;2023-08-21T08:09:13;8.13;;;1.77;;
16416;SDS011;8317;52.186;5.688;2023-08-21T08:11:40;7.45;;;1.40;;
16416;SDS011;8317;52.186;5.688;2023-08-21T08:14:06;5.57;;;1.45;;
16416;SDS011;8317;52.186;5.688;2023-08-21T08:16:35;3.65;;;2.30;;
16416;SDS011;8317;52.186;5.688;2023-08-21T08:19:02;3.70;;;1.63;;
16416;SDS011;8317;52.186;5.688;2023-08-21T08:21:28;6.32;;;1.70;;
16416;SDS011;8317;52.186;5.688;2023-08-21T08:23:55;5.78;;;1.30;;
16416;SDS011;8317;52.186;5.688;2023-08-21T08:26:22;3.80;;;1.30;;
16416;SDS011;8317;52.186;5.688;2023-08-21T08:28:49;1.48;;;1.10;;
16416;SDS011;8317;52.186;5.688;2023-08-21T08:31:17;3.45;;;1.33;;
16416;SDS011;8317;52.186;5.688;2023-08-21T08:33:45;5.65;;;1.27;;
16416;SDS011;8317;52.186;5.688;2023-08-21T08:36:13;16.98;;;1.85;;
16416;SDS011;8317;52.186;5.688;2023-08-21T08:38:40;5.38;;;2.05;;
16416;SDS011;8317;52.186;5.688;2023-08-21T08:41:10;4.05;;;1.50;;
16416;SDS011;8317;52.186;5.688;2023-08-21T08:43:40;3.63;;;1.50;;
16416;SDS011;8317;52.186;5.688;2023-08-21T08:46:07;4.70;;;1.60;;
16416;SDS011;8317;52.186;5.688;2023-08-21T08:48:34;3.35;;;1.25;;
16416;SDS011;8317;52.186;5.688;2023-08-21T08:51:03;4.80;;;1.40;;
16416;SDS011;8317;52.186;5.688;2023-08-21T08:53:30;5.40;;;2.20;;
16416;SDS011;8317;52.186;5.688;2023-08-21T08:55:57;6.05;;;2.20;;
16416;SDS011;8317;52.186;5.688;2023-08-21T08:58:24;4.38;;;1.80;;
16416;SDS011;8317;52.186;5.688;2023-08-21T09:00:52;6.50;;;1.80;;
16416;SDS011;8317;52.186;5.688;2023-08-21T09:03:19;5.55;;;1.65;;
16416;SDS011;8317;52.186;5.688;2023-08-21T09:05:46;13.40;;;2.00;;
16416;SDS011;8317;52.186;5.688;2023-08-21T09:08:16;9.20;;;2.40;;
16416;SDS011;8317;52.186;5.688;2023-08-21T09:10:43;3.08;;;1.58;;
16416;SDS011;8317;52.186;5.688;2023-08-21T09:13:14;6.78;;;1.98;;
16416;SDS011;8317;52.186;5.688;2023-08-21T09:15:42;2.28;;;1.10;;
16416;SDS011;8317;52.186;5.688;2023-08-21T09:18:09;5.07;;;1.83;;
16416;SDS011;8317;52.186;5.688;2023-08-21T09:20:37;9.60;;;1.63;;
16416;SDS011;8317;52.186;5.688;2023-08-21T09:23:04;6.82;;;1.55;;
16416;SDS011;8317;52.186;5.688;2023-08-21T09:25:36;5.57;;;1.80;;
16416;SDS011;8317;52.186;5.688;2023-08-21T09:28:05;3.50;;;1.08;;
16416;SDS011;8317;52.186;5.688;2023-08-21T09:30:45;2.88;;;1.38;;
16416;SDS011;8317;52.186;5.688;2023-08-21T09:33:13;5.25;;;1.17;;
16416;SDS011;8317;52.186;5.688;2023-08-21T09:35:43;3.42;;;1.17;;
16416;SDS011;8317;52.186;5.688;2023-08-21T09:38:10;3.50;;;1.10;;
16416;SDS011;8317;52.186;5.688;2023-08-21T09:40:42;4.20;;;1.67;;
16416;SDS011;8317;52.186;5.688;2023-08-21T09:43:10;1.88;;;0.82;;
16416;SDS011;8317;52.186;5.688;2023-08-21T09:45:37;3.95;;;1.75;;
16416;SDS011;8317;52.186;5.688;2023-08-21T09:48:05;1.83;;;1.13;;
16416;SDS011;8317;52.186;5.688;2023-08-21T09:50:33;2.83;;;1.30;;
16416;SDS011;8317;52.186;5.688;2023-08-21T09:53:01;3.05;;;1.60;;
16416;SDS011;8317;52.186;5.688;2023-08-21T09:55:29;5.72;;;1.73;;
16416;SDS011;8317;52.186;5.688;2023-08-21T09:57:59;4.13;;;1.40;;
16416;SDS011;8317;52.186;5.688;2023-08-21T10:00:30;3.05;;;1.33;;
16416;SDS011;8317;52.186;5.688;2023-08-21T10:02:59;4.65;;;1.33;;
16416;SDS011;8317;52.186;5.688;2023-08-21T10:05:28;3.40;;;1.40;;
16416;SDS011;8317;52.186;5.688;2023-08-21T10:07:56;2.53;;;1.20;;
16416;SDS011;8317;52.186;5.688;2023-08-21T10:10:28;5.22;;;1.55;;
16416;SDS011;8317;52.186;5.688;2023-08-21T10:12:56;2.83;;;1.48;;
16416;SDS011;8317;52.186;5.688;2023-08-21T10:15:25;3.97;;;1.35;;
16416;SDS011;8317;52.186;5.688;2023-08-21T10:17:54;7.75;;;1.38;;
16416;SDS011;8317;52.186;5.688;2023-08-21T10:20:21;5.18;;;1.40;;
16416;SDS011;8317;52.186;5.688;2023-08-21T10:22:49;5.15;;;1.42;;
16416;SDS011;8317;52.186;5.688;2023-08-21T10:25:19;5.57;;;1.45;;
16416;SDS011;8317;52.186;5.688;2023-08-21T10:27:49;2.45;;;1.10;;
16416;SDS011;8317;52.186;5.688;2023-08-21T10:30:20;3.25;;;1.48;;
16416;SDS011;8317;52.186;5.688;2023-08-21T10:32:49;3.42;;;0.93;;
16416;SDS011;8317;52.186;5.688;2023-08-21T10:35:18;2.10;;;1.13;;
16416;SDS011;8317;52.186;5.688;2023-08-21T10:40:32;2.08;;;0.90;;
16416;SDS011;8317;52.186;5.688;2023-08-21T10:43:00;1.75;;;1.13;;
16416;SDS011;8317;52.186;5.688;2023-08-21T10:45:28;2.08;;;0.85;;
16416;SDS011;8317;52.186;5.688;2023-08-21T10:47:57;4.57;;;0.98;;
16416;SDS011;8317;52.186;5.688;2023-08-21T10:50:25;2.47;;;0.90;;
16416;SDS011;8317;52.186;5.688;2023-08-21T10:52:53;0.88;;;0.70;;
16416;SDS011;8317;52.186;5.688;2023-08-21T10:55:20;1.02;;;0.73;;
16416;SDS011;8317;52.186;5.688;2023-08-21T10:57:47;3.42;;;1.08;;
16416;SDS011;8317;52.186;5.688;2023-08-21T11:00:15;1.30;;;0.80;;
16416;SDS011;8317;52.186;5.688;2023-08-21T11:02:43;2.17;;;1.00;;
16416;SDS011;8317;52.186;5.688;2023-08-21T11:05:13;1.38;;;0.80;;
16416;SDS011;8317;52.186;5.688;2023-08-21T11:07:41;6.32;;;1.00;;
16416;SDS011;8317;52.186;5.688;2023-08-21T11:10:10;4.10;;;1.25;;
16416;SDS011;8317;52.186;5.688;2023-08-21T11:12:39;1.98;;;0.90;;
16416;SDS011;8317;52.186;5.688;2023-08-21T11:15:15;1.00;;;0.68;;
16416;SDS011;8317;52.186;5.688;2023-08-21T11:17:42;0.68;;;0.63;;
16416;SDS011;8317;52.186;5.688;2023-08-21T11:20:18;3.83;;;1.10;;
16416;SDS011;8317;52.186;5.688;2023-08-21T11:22:45;3.45;;;0.85;;
16416;SDS011;8317;52.186;5.688;2023-08-21T11:25:12;2.42;;;0.60;;
16416;SDS011;8317;52.186;5.688;2023-08-21T11:27:40;2.10;;;0.70;;
16416;SDS011;8317;52.186;5.688;2023-08-21T11:30:10;4.22;;;0.88;;
16416;SDS011;8317;52.186;5.688;2023-08-21T11:32:37;2.83;;;0.90;;
16416;SDS011;8317;52.186;5.688;2023-08-21T11:35:04;1.83;;;0.55;;
16416;SDS011;8317;52.186;5.688;2023-08-21T11:37:33;2.25;;;0.77;;
16416;SDS011;8317;52.186;5.688;2023-08-21T11:40:00;0.98;;;0.73;;
16416;SDS011;8317;52.186;5.688;2023-08-21T11:42:34;3.17;;;0.80;;
16416;SDS011;8317;52.186;5.688;2023-08-21T11:45:01;2.13;;;0.70;;
16416;SDS011;8317;52.186;5.688;2023-08-21T11:47:30;1.27;;;0.73;;
16416;SDS011;8317;52.186;5.688;2023-08-21T11:50:01;0.50;;;0.40;;
16416;SDS011;8317;52.186;5.688;2023-08-21T11:52:29;2.38;;;0.80;;
16416;SDS011;8317;52.186;5.688;2023-08-21T11:54:58;2.45;;;0.93;;
16416;SDS011;8317;52.186;5.688;2023-08-21T11:57:25;1.60;;;0.70;;
16416;SDS011;8317;52.186;5.688;2023-08-21T11:59:53;3.08;;;0.70;;
16416;SDS011;8317;52.186;5.688;2023-08-21T12:02:22;5.32;;;1.42;;
16416;SDS011;8317;52.186;5.688;2023-08-21T12:04:53;6.13;;;1.15;;
16416;SDS011;8317;52.186;5.688;2023-08-21T12:07:24;3.92;;;0.80;;
16416;SDS011;8317;52.186;5.688;2023-08-21T12:09:51;1.92;;;0.88;;
16416;SDS011;8317;52.186;5.688;2023-08-21T12:12:19;1.58;;;0.75;;
16416;SDS011;8317;52.186;5.688;2023-08-21T12:14:46;2.40;;;0.85;;
16416;SDS011;8317;52.186;5.688;2023-08-21T12:17:13;4.00;;;0.95;;
16416;SDS011;8317;52.186;5.688;2023-08-21T12:19:40;1.33;;;0.68;;
16416;SDS011;8317;52.186;5.688;2023-08-21T12:22:08;5.63;;;0.82;;
16416;SDS011;8317;52.186;5.688;2023-08-21T12:24:35;3.13;;;1.10;;
16416;SDS011;8317;52.186;5.688;2023-08-21T12:27:03;5.25;;;1.25;;
16416;SDS011;8317;52.186;5.688;2023-08-21T12:29:31;6.38;;;1.10;;
16416;SDS011;8317;52.186;5.688;2023-08-21T12:31:58;3.35;;;1.02;;
16416;SDS011;8317;52.186;5.688;2023-08-21T12:34:25;3.63;;;1.00;;
16416;SDS011;8317;52.186;5.688;2023-08-21T12:36:52;3.63;;;1.10;;
16416;SDS011;8317;52.186;5.688;2023-08-21T12:39:19;6.05;;;1.42;;
16416;SDS011;8317;52.186;5.688;2023-08-21T12:41:47;0.47;;;0.47;;
16416;SDS011;8317;52.186;5.688;2023-08-21T12:44:14;1.48;;;0.77;;
16416;SDS011;8317;52.186;5.688;2023-08-21T12:46:42;2.50;;;1.13;;
16416;SDS011;8317;52.186;5.688;2023-08-21T12:49:10;1.52;;;0.60;;
16416;SDS011;8317;52.186;5.688;2023-08-21T12:51:36;1.90;;;0.82;;
16416;SDS011;8317;52.186;5.688;2023-08-21T12:54:03;1.35;;;0.73;;
16416;SDS011;8317;52.186;5.688;2023-08-21T12:56:30;1.92;;;1.10;;
16416;SDS011;8317;52.186;5.688;2023-08-21T12:58:57;1.52;;;0.88;;
16416;SDS011;8317;52.186;5.688;2023-08-21T13:01:25;1.50;;;0.75;;
16416;SDS011;8317;52.186;5.688;2023-08-21T13:03:54;4.40;;;1.30;;
16416;SDS011;8317;52.186;5.688;2023-08-21T13:06:21;1.80;;;0.85;;
16416;SDS011;8317;52.186;5.688;2023-08-21T13:08:47;4.50;;;0.90;;
16416;SDS011;8317;52.186;5.688;2023-08-21T13:11:15;7.22;;;0.95;;
16416;SDS011;8317;52.186;5.688;2023-08-21T13:13:41;2.15;;;1.10;;
16416;SDS011;8317;52.186;5.688;2023-08-21T13:16:08;6.45;;;0.85;;
16416;SDS011;8317;52.186;5.688;2023-08-21T13:18:35;2.10;;;0.50;;
16416;SDS011;8317;52.186;5.688;2023-08-21T13:21:03;2.95;;;1.33;;
16416;SDS011;8317;52.186;5.688;2023-08-21T13:23:30;2.17;;;0.75;;
16416;SDS011;8317;52.186;5.688;2023-08-21T13:25:59;2.28;;;1.17;;
16416;SDS011;8317;52.186;5.688;2023-08-21T13:28:29;7.13;;;1.88;;
16416;SDS011;8317;52.186;5.688;2023-08-21T13:30:56;2.90;;;0.70;;
16416;SDS011;8317;52.186;5.688;2023-08-21T13:33:23;3.25;;;0.60;;
16416;SDS011;8317;52.186;5.688;2023-08-21T13:35:50;1.50;;;0.68;;
16416;SDS011;8317;52.186;5.688;2023-08-21T13:38:18;0.70;;;0.70;;
16416;SDS011;8317;52.186;5.688;2023-08-21T13:40:45;1.42;;;0.77;;
16416;SDS011;8317;52.186;5.688;2023-08-21T13:43:12;1.23;;;0.70;;
16416;SDS011;8317;52.186;5.688;2023-08-21T13:45:39;4.72;;;0.95;;
16416;SDS011;8317;52.186;5.688;2023-08-21T13:48:06;4.90;;;0.77;;
16416;SDS011;8317;52.186;5.688;2023-08-21T13:50:33;5.57;;;0.60;;
16416;SDS011;8317;52.186;5.688;2023-08-21T13:53:00;4.05;;;0.98;;
16416;SDS011;8317;52.186;5.688;2023-08-21T13:55:29;1.00;;;0.60;;
16416;SDS011;8317;52.186;5.688;2023-08-21T13:57:56;1.60;;;0.60;;
16416;SDS011;8317;52.186;5.688;2023-08-21T14:00:22;2.17;;;0.80;;
16416;SDS011;8317;52.186;5.688;2023-08-21T14:02:49;2.55;;;0.85;;
16416;SDS011;8317;52.186;5.688;2023-08-21T14:05:16;3.85;;;0.80;;
16416;SDS011;8317;52.186;5.688;2023-08-21T14:07:43;0.85;;;0.85;;
16416;SDS011;8317;52.186;5.688;2023-08-21T14:10:10;1.58;;;0.60;;
16416;SDS011;8317;52.186;5.688;2023-08-21T14:12:40;2.20;;;0.70;;
16416;SDS011;8317;52.186;5.688;2023-08-21T14:15:07;1.05;;;0.80;;
16416;SDS011;8317;52.186;5.688;2023-08-21T14:17:35;2.97;;;0.80;;
16416;SDS011;8317;52.186;5.688;2023-08-21T14:20:02;1.92;;;0.80;;
16416;SDS011;8317;52.186;5.688;2023-08-21T14:22:29;3.22;;;1.00;;
16416;SDS011;8317;52.186;5.688;2023-08-21T14:24:56;2.75;;;0.90;;
16416;SDS011;8317;52.186;5.688;2023-08-21T14:27:23;1.45;;;0.82;;
16416;SDS011;8317;52.186;5.688;2023-08-21T14:29:52;1.23;;;0.80;;
16416;SDS011;8317;52.186;5.688;2023-08-21T14:32:18;0.65;;;0.65;;
16416;SDS011;8317;52.186;5.688;2023-08-21T14:34:45;2.75;;;0.77;;
16416;SDS011;8317;52.186;5.688;2023-08-21T14:37:12;1.35;;;0.80;;
16416;SDS011;8317;52.186;5.688;2023-08-21T14:39:41;2.25;;;1.02;;
16416;SDS011;8317;52.186;5.688;2023-08-21T14:42:08;1.10;;;0.93;;
16416;SDS011;8317;52.186;5.688;2023-08-21T14:44:35;0.60;;;0.60;;
16416;SDS011;8317;52.186;5.688;2023-08-21T14:47:03;0.55;;;0.55;;
16416;SDS011;8317;52.186;5.688;2023-08-21T14:49:30;1.00;;;0.80;;
16416;SDS011;8317;52.186;5.688;2023-08-21T14:51:58;1.70;;;0.70;;
16416;SDS011;8317;52.186;5.688;2023-08-21T14:54:25;2.88;;;1.63;;
16416;SDS011;8317;52.186;5.688;2023-08-21T14:56:52;2.95;;;1.00;;
16416;SDS011;8317;52.186;5.688;2023-08-21T14:59:19;3.10;;;0.93;;
16416;SDS011;8317;52.186;5.688;2023-08-21T15:01:46;1.60;;;0.77;;
16416;SDS011;8317;52.186;5.688;2023-08-21T15:04:14;1.25;;;0.75;;
16416;SDS011;8317;52.186;5.688;2023-08-21T15:06:41;0.80;;;0.50;;